Time;durP1;ratioP1;P1;durP2;ratioP2;P2;SDS_P1;SDS_P2;PMS_P1;PMS_P2;Temp;Humidity;BMP_temperature;BMP_pressure;BME280_temperature;BME280_humidity;BME280_pressure;Samples;Min_cycle;Max_cycle;Signal;HPM_P1;HPM_P2
2021/12/16 00:01:42;;;;;;;1.20;1.20;;;6.10;98.00;;;;;;5095654;28;20591;-74
2021/12/16 00:09:00;;;;;;;1.10;1.00;;;6.10;98.00;;;;;;5082170;28;20471;-73
2021/12/16 00:19:31;;;;;;;1.40;1.10;;;6.00;98.00;;;;;;5095364;28;20459;-75
2021/12/16 00:31:18;;;;;;;1.10;0.90;;;6.00;98.00;;;;;;5095264;28;20444;-74
2021/12/16 00:33:57;;;;;;;1.20;1.17;;;5.90;98.00;;;;;;5094653;28;20489;-74
2021/12/16 00:36:26;;;;;;;1.20;1.00;;;5.90;98.00;;;;;;5094805;28;20487;-75
2021/12/16 00:38:53;;;;;;;1.30;1.27;;;6.00;98.00;;;;;;5094714;28;20482;-74
2021/12/16 00:41:20;;;;;;;1.83;1.10;;;6.00;98.00;;;;;;5094969;28;20550;-74
2021/12/16 00:43:52;;;;;;;1.67;1.60;;;6.00;98.00;;;;;;5094438;28;20455;-74
2021/12/16 00:46:33;;;;;;;1.20;1.00;;;5.90;98.00;;;;;;5094642;28;20856;-74
2021/12/16 00:49:21;;;;;;;1.40;1.10;;;6.00;98.00;;;;;;5094486;28;20467;-74
2021/12/16 00:54:36;;;;;;;1.93;1.13;;;5.90;98.00;;;;;;5094482;28;20487;-74
2021/12/16 00:57:10;;;;;;;1.40;1.20;;;5.90;98.00;;;;;;5094441;28;20519;-73
2021/12/16 00:59:40;;;;;;;1.93;1.30;;;5.70;98.00;;;;;;5094230;28;20461;-74
2021/12/16 01:02:26;;;;;;;1.60;1.50;;;5.70;98.00;;;;;;5094435;28;20457;-74
2021/12/16 01:35:27;;;;;;;1.10;0.97;;;5.80;98.00;;;;;;5094054;28;20537;-74
2021/12/16 01:38:28;;;;;;;1.20;1.13;;;5.70;98.00;;;;;;5093893;28;20453;-73
2021/12/16 01:41:36;;;;;;;1.20;1.07;;;5.80;98.00;;;;;;5093721;28;20941;-74
2021/12/16 01:46:59;;;;;;;1.20;1.17;;;5.60;98.00;;;;;;5092811;28;20452;-74
2021/12/16 01:49:47;;;;;;;1.20;1.00;;;5.60;98.00;;;;;;5093128;28;20963;-74
2021/12/16 01:52:39;;;;;;;1.20;1.00;;;5.60;98.00;;;;;;5091773;28;20457;-74
2021/12/16 01:55:13;;;;;;;1.13;0.97;;;5.50;98.00;;;;;;5093341;28;20487;-75
2021/12/16 01:57:45;;;;;;;1.20;1.10;;;5.40;98.00;;;;;;5093026;28;20463;-75
2021/12/16 02:00:17;;;;;;;3.20;1.80;;;5.40;98.00;;;;;;5093045;28;20540;-74
2021/12/16 02:02:48;;;;;;;1.17;1.00;;;5.50;98.00;;;;;;5093159;28;20448;-74
2021/12/16 02:05:37;;;;;;;3.27;1.30;;;5.60;98.00;;;;;;5091671;28;20453;-75
2021/12/16 02:08:20;;;;;;;1.20;1.03;;;5.40;98.00;;;;;;5093135;28;20450;-74
2021/12/16 02:11:00;;;;;;;1.20;1.00;;;5.40;98.00;;;;;;5093125;28;20448;-74
2021/12/16 02:27:29;;;;;;;1.20;1.00;;;5.50;98.00;;;;;;5092857;28;20529;-73
2021/12/16 02:30:31;;;;;;;1.20;1.07;;;5.50;98.00;;;;;;5092782;28;20460;-74
2021/12/16 02:33:08;;;;;;;1.53;1.10;;;5.50;98.00;;;;;;5092699;28;20455;-75
2021/12/16 02:35:42;;;;;;;1.20;1.00;;;5.50;98.00;;;;;;5092659;28;20560;-73
2021/12/16 02:38:13;;;;;;;1.67;1.57;;;5.70;98.00;;;;;;5092716;28;20545;-74
2021/12/16 02:40:41;;;;;;;1.30;1.10;;;5.60;98.00;;;;;;5092600;28;20471;-74
2021/12/16 02:43:28;;;;;;;2.90;1.27;;;5.70;98.00;;;;;;5092301;28;20552;-74
2021/12/16 02:48:42;;;;;;;1.20;1.00;;;5.50;98.00;;;;;;5092475;28;20843;-74
2021/12/16 02:51:12;;;;;;;1.20;1.00;;;5.40;98.00;;;;;;5092430;28;20839;-75
2021/12/16 02:53:46;;;;;;;2.03;1.50;;;5.40;98.00;;;;;;5092411;28;20487;-75
2021/12/16 02:56:14;;;;;;;1.30;1.10;;;5.40;98.00;;;;;;5092324;28;20484;-75
2021/12/16 02:58:44;;;;;;;1.43;1.37;;;5.30;98.00;;;;;;5092287;28;20515;-74
2021/12/16 03:01:14;;;;;;;1.20;0.90;;;5.30;98.00;;;;;;5092178;28;20480;-75
2021/12/16 03:03:41;;;;;;;1.30;1.30;;;5.40;98.00;;;;;;5092212;28;20806;-75
2021/12/16 03:06:10;;;;;;;1.20;1.20;;;5.30;98.00;;;;;;5091532;28;20934;-74
2021/12/16 03:08:37;;;;;;;1.60;1.40;;;5.40;98.00;;;;;;5092064;28;20463;-74
2021/12/16 03:11:20;;;;;;;1.20;1.20;;;5.50;98.00;;;;;;5092277;28;20460;-74
2021/12/16 03:14:02;;;;;;;1.20;1.10;;;5.50;98.00;;;;;;5091730;28;20460;-74
2021/12/16 03:16:39;;;;;;;1.50;1.20;;;5.60;98.00;;;;;;5092015;28;20962;-74
2021/12/16 03:19:14;;;;;;;1.30;1.17;;;5.50;98.00;;;;;;5091700;28;20962;-74
2021/12/16 03:21:46;;;;;;;1.93;1.50;;;5.50;98.00;;;;;;5091988;28;20456;-74
2021/12/16 03:24:37;;;;;;;1.20;1.10;;;5.50;98.00;;;;;;5091974;28;20449;-75
2021/12/16 03:30:18;;;;;;;1.20;1.00;;;5.50;98.00;;;;;;5091964;28;20445;-74
2021/12/16 03:35:33;;;;;;;1.10;0.97;;;5.80;98.00;;;;;;5090671;28;20475;-75
2021/12/16 03:38:04;;;;;;;2.07;1.47;;;5.80;98.00;;;;;;5091629;28;20476;-74
2021/12/16 03:40:33;;;;;;;1.20;1.00;;;5.70;98.00;;;;;;5091558;28;20982;-74
2021/12/16 03:43:05;;;;;;;1.50;1.30;;;5.70;98.00;;;;;;5091996;28;20500;-74
2021/12/16 03:48:28;;;;;;;1.17;1.00;;;5.80;98.00;;;;;;5091587;28;20482;-75
2021/12/16 03:50:55;;;;;;;1.43;1.23;;;6.00;98.00;;;;;;5091754;28;20600;-74
2021/12/16 03:53:25;;;;;;;3.10;1.83;;;5.90;98.00;;;;;;5091623;28;20518;-74
2021/12/16 03:55:52;;;;;;;1.17;0.97;;;5.70;98.00;;;;;;5091532;28;21165;-74
2021/12/16 03:58:23;;;;;;;1.20;1.03;;;5.50;98.00;;;;;;5091506;28;20510;-74
2021/12/16 04:00:54;;;;;;;1.20;1.00;;;5.70;98.00;;;;;;5091538;28;20544;-75
2021/12/16 04:03:22;;;;;;;1.50;1.10;;;5.90;98.00;;;;;;5091431;28;20535;-75
2021/12/16 04:05:50;;;;;;;1.27;1.20;;;5.80;98.00;;;;;;5091067;28;20455;-74
2021/12/16 04:08:18;;;;;;;1.13;1.10;;;5.90;98.00;;;;;;5089475;28;21107;-75
2021/12/16 04:10:52;;;;;;;1.70;1.30;;;5.80;98.00;;;;;;5090998;28;20807;-74
2021/12/16 04:13:21;;;;;;;1.10;0.90;;;5.80;98.00;;;;;;5091317;28;20483;-74
2021/12/16 04:15:49;;;;;;;1.13;1.00;;;5.70;98.00;;;;;;5091770;28;20479;-74
2021/12/16 04:18:16;;;;;;;1.40;1.20;;;5.70;98.00;;;;;;5094995;28;20532;-74
2021/12/16 04:20:43;;;;;;;1.40;1.10;;;5.70;98.00;;;;;;5095469;28;20503;-74
2021/12/16 04:23:12;;;;;;;2.03;1.63;;;5.70;98.00;;;;;;5095459;28;21032;-74
2021/12/16 04:25:43;;;;;;;2.07;1.10;;;5.70;98.00;;;;;;5095415;28;20477;-75
2021/12/16 04:28:15;;;;;;;2.17;1.50;;;5.70;98.00;;;;;;5095562;28;20482;-74
2021/12/16 04:30:44;;;;;;;1.40;1.30;;;5.70;98.00;;;;;;5094850;28;20485;-75
2021/12/16 04:33:12;;;;;;;1.60;1.47;;;5.80;98.00;;;;;;5095212;28;20547;-75
2021/12/16 04:35:40;;;;;;;1.30;1.17;;;5.70;98.00;;;;;;5094876;28;20484;-75
2021/12/16 04:38:10;;;;;;;1.60;1.20;;;5.80;98.00;;;;;;5094764;28;20557;-75
2021/12/16 04:40:38;;;;;;;1.13;1.00;;;5.80;98.00;;;;;;5094829;28;20457;-75
2021/12/16 04:43:08;;;;;;;1.10;1.10;;;5.90;98.00;;;;;;5094607;28;20456;-74
2021/12/16 04:45:36;;;;;;;1.13;0.90;;;5.80;98.00;;;;;;5094692;28;20456;-75
2021/12/16 04:48:06;;;;;;;2.07;1.73;;;5.80;98.00;;;;;;5094701;28;20541;-75
2021/12/16 04:50:33;;;;;;;2.83;1.17;;;5.80;98.00;;;;;;5094649;28;20560;-75
2021/12/16 04:53:01;;;;;;;1.20;0.90;;;5.70;98.00;;;;;;5094414;28;20484;-75
2021/12/16 04:55:28;;;;;;;1.40;1.27;;;5.70;98.00;;;;;;5094267;28;20527;-74
2021/12/16 04:57:55;;;;;;;1.10;0.93;;;5.70;98.00;;;;;;5094384;28;20541;-75
2021/12/16 05:00:24;;;;;;;1.20;1.00;;;5.80;98.00;;;;;;5094315;28;20458;-75
2021/12/16 05:02:53;;;;;;;1.20;1.00;;;5.70;98.00;;;;;;5092911;28;20487;-76
2021/12/16 05:05:22;;;;;;;1.70;1.30;;;5.50;98.00;;;;;;5094330;28;20472;-74
2021/12/16 05:07:49;;;;;;;1.20;1.00;;;5.50;98.00;;;;;;5094161;28;20460;-74
2021/12/16 05:10:18;;;;;;;1.53;1.33;;;5.50;98.00;;;;;;5094200;28;20483;-74
2021/12/16 05:12:50;;;;;;;1.30;1.27;;;5.60;98.00;;;;;;5094442;28;20462;-74
2021/12/16 05:15:20;;;;;;;1.20;1.00;;;5.70;98.00;;;;;;5094008;28;20480;-74
2021/12/16 05:17:51;;;;;;;2.57;1.87;;;5.70;98.00;;;;;;5094053;28;20485;-74
2021/12/16 05:20:22;;;;;;;1.20;1.00;;;5.60;98.00;;;;;;5094213;28;20448;-74
2021/12/16 05:25:47;;;;;;;1.20;1.00;;;5.80;98.00;;;;;;5094053;28;20813;-75
2021/12/16 05:28:16;;;;;;;1.73;1.63;;;5.70;98.00;;;;;;5092891;28;20459;-74
2021/12/16 05:30:45;;;;;;;1.10;1.00;;;5.70;98.00;;;;;;5093776;28;20867;-74
2021/12/16 05:33:12;;;;;;;2.27;1.50;;;5.70;98.00;;;;;;5093952;28;20496;-74
2021/12/16 05:35:41;;;;;;;1.10;0.90;;;5.70;98.00;;;;;;5093751;28;20485;-74
2021/12/16 05:38:08;;;;;;;2.17;1.20;;;5.50;98.00;;;;;;5093946;28;20458;-74
2021/12/16 05:40:36;;;;;;;1.30;1.17;;;5.60;98.00;;;;;;5093941;28;20511;-75
2021/12/16 05:43:07;;;;;;;1.20;1.00;;;5.70;98.00;;;;;;5093694;28;20515;-75
2021/12/16 05:45:35;;;;;;;1.20;1.00;;;5.70;98.00;;;;;;5093728;28;20455;-74
2021/12/16 05:48:05;;;;;;;1.20;1.00;;;5.70;98.00;;;;;;5093770;28;20440;-74
2021/12/16 05:50:35;;;;;;;1.30;1.27;;;5.70;98.00;;;;;;5093721;28;20523;-74
2021/12/16 05:53:04;;;;;;;1.40;1.30;;;5.80;98.00;;;;;;5093604;28;21097;-75
2021/12/16 05:55:33;;;;;;;1.20;1.00;;;5.70;98.00;;;;;;5092275;28;20490;-74
2021/12/16 05:58:03;;;;;;;2.27;2.07;;;5.70;98.00;;;;;;5093410;28;20485;-74
2021/12/16 06:00:34;;;;;;;1.20;1.10;;;5.70;98.00;;;;;;5093012;28;20505;-74
2021/12/16 06:03:01;;;;;;;1.20;1.20;;;5.90;98.00;;;;;;5093209;28;20490;-73
2021/12/16 06:05:28;;;;;;;3.10;1.67;;;5.80;98.00;;;;;;5093294;28;20506;-74
2021/12/16 06:07:55;;;;;;;1.20;1.20;;;5.90;98.00;;;;;;5092975;28;20513;-74
2021/12/16 06:13:11;;;;;;;1.90;1.30;;;6.10;98.00;;;;;;5093159;28;20492;-74
2021/12/16 06:15:55;;;;;;;1.20;1.10;;;6.00;98.00;;;;;;5092429;28;20492;-74
2021/12/16 06:27:02;;;;;;;3.13;1.13;;;6.00;98.00;;;;;;5069754;28;20494;-74
2021/12/16 06:29:30;;;;;;;1.40;1.30;;;6.00;98.00;;;;;;5069796;28;20514;-74
2021/12/16 06:31:57;;;;;;;1.70;1.20;;;6.00;98.00;;;;;;5081315;28;20511;-74
2021/12/16 06:34:24;;;;;;;1.60;1.10;;;6.00;98.00;;;;;;5092604;28;20452;-74
2021/12/16 06:36:52;;;;;;;1.20;0.90;;;5.90;98.00;;;;;;5092508;28;20457;-74
2021/12/16 06:39:19;;;;;;;1.20;1.00;;;5.90;98.00;;;;;;5090967;28;20452;-74
2021/12/16 06:41:46;;;;;;;1.30;1.13;;;5.80;98.00;;;;;;5092508;28;20456;-74
2021/12/16 06:44:21;;;;;;;1.17;1.00;;;5.70;98.00;;;;;;5092504;28;20513;-76
2021/12/16 06:46:50;;;;;;;1.20;1.00;;;5.60;98.00;;;;;;5092516;28;20912;-75
2021/12/16 06:49:18;;;;;;;2.03;1.30;;;5.70;98.00;;;;;;5092314;28;21017;-74
2021/12/16 06:51:50;;;;;;;1.20;1.00;;;5.70;98.00;;;;;;5092486;28;20463;-75
2021/12/16 06:54:26;;;;;;;1.13;1.00;;;5.80;98.00;;;;;;5092390;28;20460;-75
2021/12/16 06:57:01;;;;;;;1.30;1.10;;;5.80;98.00;;;;;;5092371;28;20612;-74
2021/12/16 06:59:33;;;;;;;1.30;1.20;;;5.70;98.00;;;;;;5092267;28;20456;-74
2021/12/16 07:02:11;;;;;;;1.83;1.20;;;5.70;98.00;;;;;;5092309;28;20456;-75
2021/12/16 07:04:43;;;;;;;1.20;1.00;;;5.80;98.00;;;;;;5092254;28;20541;-75
2021/12/16 07:07:12;;;;;;;1.40;1.10;;;5.70;98.00;;;;;;5091355;28;20459;-74
2021/12/16 07:09:39;;;;;;;1.20;1.00;;;5.70;98.00;;;;;;5092234;28;20525;-74
2021/12/16 07:12:09;;;;;;;1.10;1.00;;;5.60;98.00;;;;;;5092038;28;20545;-74
2021/12/16 07:14:40;;;;;;;1.30;1.20;;;5.60;98.00;;;;;;5091878;28;20518;-75
2021/12/16 07:17:11;;;;;;;1.47;1.30;;;5.50;98.00;;;;;;5092023;28;20518;-75
2021/12/16 07:19:50;;;;;;;1.47;1.20;;;5.50;98.00;;;;;;5091951;28;20489;-75
2021/12/16 07:22:18;;;;;;;1.20;1.10;;;5.60;98.00;;;;;;5091887;28;20498;-75
2021/12/16 07:24:45;;;;;;;1.20;1.00;;;5.70;98.00;;;;;;5091784;28;20615;-75
2021/12/16 07:27:13;;;;;;;1.20;1.10;;;5.70;98.00;;;;;;5092060;28;20491;-75
2021/12/16 07:29:41;;;;;;;2.40;1.10;;;5.80;98.00;;;;;;5091858;28;20519;-75
2021/12/16 07:32:09;;;;;;;1.20;1.00;;;5.70;98.00;;;;;;5091802;28;20469;-76
2021/12/16 07:34:36;;;;;;;1.30;1.10;;;5.70;98.00;;;;;;5090546;28;20466;-75
2021/12/16 07:37:08;;;;;;;1.10;1.00;;;5.50;98.00;;;;;;5091647;28;20895;-74
2021/12/16 07:39:38;;;;;;;1.10;1.00;;;5.60;98.00;;;;;;5091495;28;20516;-75
2021/12/16 07:42:08;;;;;;;1.10;1.00;;;5.70;98.00;;;;;;5091446;28;20473;-75
2021/12/16 07:44:36;;;;;;;1.30;1.30;;;5.70;98.00;;;;;;5091708;28;21104;-75
2021/12/16 07:47:08;;;;;;;1.70;1.10;;;5.70;98.00;;;;;;5091693;28;20448;-76
2021/12/16 07:49:39;;;;;;;2.03;1.27;;;5.70;98.00;;;;;;5091515;28;20903;-75
2021/12/16 07:52:08;;;;;;;1.20;1.20;;;5.70;98.00;;;;;;5094537;28;20462;-75
2021/12/16 07:54:36;;;;;;;1.10;1.00;;;5.70;98.00;;;;;;5094357;28;20485;-75
2021/12/16 07:57:03;;;;;;;1.20;1.10;;;5.70;98.00;;;;;;5095673;28;20521;-75
2021/12/16 07:59:32;;;;;;;1.20;1.00;;;5.70;98.00;;;;;;5095480;28;20455;-75
2021/12/16 08:02:00;;;;;;;1.40;1.30;;;5.60;98.00;;;;;;5095574;28;21168;-75
2021/12/16 08:04:31;;;;;;;1.20;1.00;;;5.60;98.00;;;;;;5096013;28;20486;-76
2021/12/16 08:07:03;;;;;;;1.50;1.30;;;5.60;98.00;;;;;;5095587;28;20935;-74
2021/12/16 08:09:31;;;;;;;3.20;1.30;;;5.80;98.00;;;;;;5095156;28;20457;-75
2021/12/16 08:11:59;;;;;;;1.20;1.10;;;5.70;98.00;;;;;;5095591;28;20505;-74
2021/12/16 08:14:26;;;;;;;1.30;1.17;;;5.70;98.00;;;;;;5095361;28;20979;-74
2021/12/16 08:16:53;;;;;;;1.17;1.07;;;5.70;98.00;;;;;;5095244;28;20496;-75
2021/12/16 08:19:20;;;;;;;1.20;1.20;;;5.60;98.00;;;;;;5095231;28;20488;-75
2021/12/16 08:21:49;;;;;;;1.10;1.00;;;5.60;98.00;;;;;;5095283;28;20502;-74
2021/12/16 08:24:17;;;;;;;1.97;1.20;;;5.70;98.00;;;;;;5095119;28;20500;-75
2021/12/16 08:26:45;;;;;;;1.20;1.00;;;5.70;98.00;;;;;;5095170;28;20461;-74
2021/12/16 08:29:13;;;;;;;1.20;1.00;;;5.70;98.00;;;;;;5095077;28;20492;-74
2021/12/16 08:31:40;;;;;;;1.13;1.00;;;5.70;98.00;;;;;;5095130;28;20495;-73
2021/12/16 08:34:07;;;;;;;1.63;1.37;;;5.70;98.00;;;;;;5094875;28;20603;-75
2021/12/16 08:36:35;;;;;;;2.23;1.37;;;5.80;98.00;;;;;;5093448;28;20517;-75
2021/12/16 08:39:07;;;;;;;1.20;1.10;;;5.80;98.00;;;;;;5093165;28;20532;-73
2021/12/16 08:41:37;;;;;;;1.40;1.10;;;5.70;98.00;;;;;;5091427;28;20454;-73
2021/12/16 08:44:04;;;;;;;1.20;1.00;;;5.70;98.00;;;;;;5092278;28;20464;-72
2021/12/16 08:46:36;;;;;;;2.93;1.53;;;5.90;98.00;;;;;;5091786;28;20488;-74
2021/12/16 08:49:04;;;;;;;1.30;1.10;;;5.80;98.00;;;;;;5091716;28;20513;-74
2021/12/16 08:51:35;;;;;;;1.87;1.20;;;5.80;98.00;;;;;;5090271;28;20489;-74
2021/12/16 08:54:05;;;;;;;1.53;1.30;;;5.70;98.00;;;;;;5091748;28;20589;-76
2021/12/16 08:56:32;;;;;;;1.30;1.10;;;5.70;98.00;;;;;;5091675;28;20531;-74
2021/12/16 08:59:02;;;;;;;1.67;1.30;;;5.70;98.00;;;;;;5091635;28;20450;-74
2021/12/16 09:01:32;;;;;;;1.50;1.40;;;5.80;98.00;;;;;;5091861;28;20457;-75
2021/12/16 09:03:59;;;;;;;1.40;1.33;;;5.90;98.00;;;;;;5090336;28;21026;-70
2021/12/16 09:06:27;;;;;;;2.33;1.30;;;6.10;98.00;;;;;;5091333;28;20533;-75
2021/12/16 09:08:55;;;;;;;1.20;1.10;;;6.10;98.00;;;;;;5091455;28;20454;-74
2021/12/16 09:11:25;;;;;;;1.20;1.10;;;6.20;98.00;;;;;;5091343;28;21308;-74
2021/12/16 09:13:57;;;;;;;1.90;1.47;;;6.20;98.00;;;;;;5091421;28;20455;-75
2021/12/16 09:16:29;;;;;;;1.50;1.10;;;6.20;98.00;;;;;;5091124;28;20521;-72
2021/12/16 09:18:57;;;;;;;1.30;1.30;;;6.40;98.00;;;;;;5091207;28;20463;-72
2021/12/16 09:21:27;;;;;;;1.10;1.00;;;6.30;98.00;;;;;;5089735;28;20466;-72
2021/12/16 09:23:55;;;;;;;1.30;1.03;;;6.40;98.00;;;;;;5089815;28;20794;-71
2021/12/16 09:26:25;;;;;;;3.00;1.17;;;6.60;98.00;;;;;;5090995;28;20549;-68
2021/12/16 09:28:52;;;;;;;1.10;0.97;;;6.60;98.00;;;;;;5090538;28;20485;-70
2021/12/16 09:31:21;;;;;;;1.10;0.90;;;6.70;98.00;;;;;;5090480;28;20476;-72
2021/12/16 09:33:52;;;;;;;1.20;1.10;;;6.80;98.00;;;;;;5090229;28;20551;-72
2021/12/16 09:36:23;;;;;;;1.10;1.00;;;6.60;98.00;;;;;;5090726;28;20482;-72
2021/12/16 09:38:51;;;;;;;1.37;1.13;;;6.50;98.00;;;;;;5090759;28;20486;-72
2021/12/16 09:41:19;;;;;;;1.10;1.00;;;6.40;98.00;;;;;;5090545;28;20489;-72
2021/12/16 09:43:51;;;;;;;1.53;1.43;;;6.40;98.00;;;;;;5091247;28;20453;-72
2021/12/16 09:46:22;;;;;;;1.10;1.00;;;6.50;98.00;;;;;;5090857;28;20448;-72
2021/12/16 09:48:49;;;;;;;1.50;1.20;;;6.30;98.00;;;;;;5090699;28;20459;-72
2021/12/16 09:51:22;;;;;;;1.17;1.00;;;6.40;98.00;;;;;;5088530;28;20878;-73
2021/12/16 09:53:51;;;;;;;1.30;1.10;;;6.50;98.00;;;;;;5090782;28;20490;-72
2021/12/16 09:56:19;;;;;;;1.83;1.77;;;6.40;98.00;;;;;;5090845;28;20563;-73
2021/12/16 09:58:49;;;;;;;1.20;1.00;;;6.40;98.00;;;;;;5090565;28;20516;-71
2021/12/16 10:01:17;;;;;;;1.87;1.30;;;6.20;98.00;;;;;;5090518;28;20549;-72
2021/12/16 10:03:54;;;;;;;1.47;1.10;;;6.30;98.00;;;;;;5090820;28;20500;-71
2021/12/16 10:06:21;;;;;;;1.20;1.00;;;6.30;98.00;;;;;;5091051;28;20507;-73
2021/12/16 10:08:49;;;;;;;1.20;1.10;;;6.40;98.00;;;;;;5090839;28;20496;-72
2021/12/16 10:11:17;;;;;;;1.10;0.90;;;6.40;98.00;;;;;;5090245;28;20515;-73
2021/12/16 10:14:00;;;;;;;1.20;1.00;;;6.30;98.00;;;;;;5089256;28;20874;-72
2021/12/16 10:19:17;;;;;;;2.77;1.30;;;6.30;98.00;;;;;;5090620;28;20459;-70
2021/12/16 10:21:45;;;;;;;1.10;0.90;;;6.30;98.00;;;;;;5090060;28;20842;-72
2021/12/16 10:24:23;;;;;;;3.37;1.50;;;6.40;98.00;;;;;;5090314;28;20507;-71
2021/12/16 10:27:09;;;;;;;1.20;1.10;;;6.40;98.00;;;;;;5090019;28;20990;-71
2021/12/16 10:29:42;;;;;;;1.17;1.00;;;6.50;98.00;;;;;;5089802;28;20551;-70
2021/12/16 10:32:41;;;;;;;1.50;1.40;;;6.60;98.00;;;;;;5088870;28;20546;-69
2021/12/16 10:35:14;;;;;;;1.97;1.23;;;7.00;98.00;;;;;;5089771;28;20473;-72
2021/12/16 10:37:45;;;;;;;1.33;1.00;;;6.90;98.00;;;;;;5089783;28;20493;-71
2021/12/16 10:40:36;;;;;;;2.73;1.30;;;6.70;98.00;;;;;;5089788;28;20546;-70
2021/12/16 10:43:07;;;;;;;1.20;1.00;;;6.80;98.00;;;;;;5089594;28;20544;-71
2021/12/16 10:45:48;;;;;;;1.33;1.30;;;6.70;98.00;;;;;;5089374;28;20460;-71
2021/12/16 10:48:26;;;;;;;1.20;1.00;;;6.80;98.00;;;;;;5089461;28;20472;-70
2021/12/16 10:51:19;;;;;;;1.40;1.30;;;7.00;98.00;;;;;;5087209;28;20524;-70
2021/12/16 10:54:08;;;;;;;1.20;1.00;;;7.00;98.00;;;;;;5083582;28;20458;-71
2021/12/16 10:56:41;;;;;;;1.20;1.00;;;6.70;98.00;;;;;;5089072;28;20486;-72
2021/12/16 10:59:13;;;;;;;1.23;1.17;;;6.80;98.00;;;;;;5088994;28;20532;-70
2021/12/16 11:02:05;;;;;;;1.20;1.10;;;7.00;98.00;;;;;;5089539;28;20495;-71
2021/12/16 11:04:36;;;;;;;3.57;2.00;;;7.00;98.00;;;;;;5089516;28;20530;-70
2021/12/16 11:07:12;;;;;;;1.33;1.10;;;7.20;98.00;;;;;;5090431;28;20899;-71
2021/12/16 11:09:50;;;;;;;1.50;1.30;;;7.20;98.00;;;;;;5092136;28;20539;-69
2021/12/16 11:12:40;;;;;;;1.50;1.40;;;7.30;98.00;;;;;;5092068;28;20562;-69
2021/12/16 11:15:15;;;;;;;2.80;1.70;;;7.30;98.00;;;;;;5092236;28;20495;-71
2021/12/16 11:17:46;;;;;;;1.20;1.07;;;7.40;98.00;;;;;;5092150;28;20563;-71
2021/12/16 11:20:24;;;;;;;1.30;1.10;;;7.40;98.00;;;;;;5092145;28;20535;-70
2021/12/16 11:22:55;;;;;;;2.07;1.40;;;7.40;98.00;;;;;;5091821;28;20492;-67
2021/12/16 11:25:26;;;;;;;1.43;1.20;;;7.40;98.00;;;;;;5088339;28;20521;-71
2021/12/16 11:27:56;;;;;;;3.10;2.30;;;7.40;98.00;;;;;;5091224;28;20533;-70
2021/12/16 11:30:34;;;;;;;1.20;1.20;;;7.30;98.00;;;;;;5092013;28;20494;-70
2021/12/16 11:33:32;;;;;;;1.20;1.03;;;7.30;98.00;;;;;;5091797;28;20493;-70
2021/12/16 11:36:13;;;;;;;1.10;0.90;;;7.20;98.00;;;;;;5091698;28;20939;-71
2021/12/16 11:38:44;;;;;;;1.30;1.10;;;7.20;98.00;;;;;;5091553;28;20452;-71
2021/12/16 11:41:24;;;;;;;1.20;1.00;;;7.20;98.00;;;;;;5091483;28;20508;-70
2021/12/16 11:44:02;;;;;;;1.37;1.37;;;7.20;98.00;;;;;;5091101;28;20487;-70
2021/12/16 11:46:33;;;;;;;1.20;1.10;;;7.20;98.00;;;;;;5091176;28;20450;-71
2021/12/16 11:49:06;;;;;;;3.70;1.80;;;7.40;98.00;;;;;;5089496;28;20486;-71
2021/12/16 11:51:37;;;;;;;2.37;1.67;;;7.40;98.00;;;;;;5091514;28;20534;-71
2021/12/16 11:54:07;;;;;;;2.50;1.40;;;7.30;98.00;;;;;;5091548;28;20971;-70
2021/12/16 11:56:40;;;;;;;2.80;1.33;;;7.20;98.00;;;;;;5091286;28;20486;-70
2021/12/16 11:59:08;;;;;;;1.83;1.30;;;7.30;98.00;;;;;;5091317;28;20503;-71
2021/12/16 12:01:38;;;;;;;1.20;1.00;;;7.30;98.00;;;;;;5091527;28;20489;-71
2021/12/16 12:04:09;;;;;;;1.47;1.30;;;7.40;98.00;;;;;;5091383;28;20848;-70
2021/12/16 12:06:40;;;;;;;1.50;1.10;;;7.40;98.00;;;;;;5091488;28;20530;-71
2021/12/16 12:09:09;;;;;;;1.40;1.30;;;7.50;98.00;;;;;;5091703;28;20451;-71
2021/12/16 12:11:42;;;;;;;1.20;1.00;;;7.50;98.00;;;;;;5091571;28;20841;-71
2021/12/16 12:14:12;;;;;;;1.50;1.33;;;7.40;98.00;;;;;;5091544;28;20483;-71
2021/12/16 12:16:42;;;;;;;1.20;1.10;;;7.40;98.00;;;;;;5091200;28;20515;-71
2021/12/16 12:19:17;;;;;;;1.30;1.10;;;7.30;98.00;;;;;;5091348;28;20586;-71
2021/12/16 12:21:46;;;;;;;3.40;1.53;;;7.50;98.00;;;;;;5091574;28;20513;-71
2021/12/16 12:24:17;;;;;;;1.50;1.47;;;7.50;98.00;;;;;;5091462;28;20474;-70
2021/12/16 12:26:50;;;;;;;1.20;1.00;;;7.40;98.00;;;;;;5091711;28;20455;-71
2021/12/16 12:29:19;;;;;;;1.87;1.27;;;7.40;98.00;;;;;;5091442;28;20523;-72
2021/12/16 12:31:49;;;;;;;1.60;1.33;;;7.40;98.00;;;;;;5091545;28;20934;-72
2021/12/16 12:34:21;;;;;;;1.50;1.20;;;7.30;98.00;;;;;;5091191;28;20490;-71
2021/12/16 12:36:50;;;;;;;3.17;1.60;;;7.40;98.00;;;;;;5092014;28;20518;-71
2021/12/16 12:39:21;;;;;;;1.20;1.00;;;7.40;98.00;;;;;;5094268;28;20459;-70
2021/12/16 12:41:48;;;;;;;1.87;1.50;;;7.50;98.00;;;;;;5093985;28;20508;-71
2021/12/16 12:44:16;;;;;;;1.20;1.00;;;7.70;98.00;;;;;;5094939;28;20563;-70
2021/12/16 12:46:45;;;;;;;1.83;1.20;;;7.80;98.00;;;;;;5094247;28;20497;-71
2021/12/16 12:49:16;;;;;;;1.20;1.00;;;7.80;98.00;;;;;;5094627;28;20956;-70
2021/12/16 12:51:47;;;;;;;1.20;1.10;;;7.80;98.00;;;;;;5094634;28;20483;-70
2021/12/16 12:54:26;;;;;;;1.30;1.20;;;7.70;98.00;;;;;;5094452;28;20494;-70
2021/12/16 12:56:56;;;;;;;1.20;1.00;;;7.90;98.00;;;;;;5094290;28;20483;-72
2021/12/16 12:59:35;;;;;;;1.67;1.20;;;8.10;98.00;;;;;;5094314;28;20541;-70
2021/12/16 13:02:15;;;;;;;3.30;1.60;;;8.10;98.00;;;;;;5093973;28;20547;-70
2021/12/16 13:04:48;;;;;;;1.20;1.00;;;8.00;98.00;;;;;;5094186;28;20887;-70
2021/12/16 13:07:17;;;;;;;1.60;1.47;;;7.80;98.00;;;;;;5418709;22;20527;-70
2021/12/16 13:09:46;;;;;;;1.20;1.00;;;7.70;98.00;;;;;;5073689;28;20460;-71
2021/12/16 13:12:41;;;;;;;1.30;1.30;;;7.80;98.00;;;;;;5073804;28;20522;-70
2021/12/16 13:15:36;;;;;;;1.17;0.90;;;8.00;98.00;;;;;;5073943;28;20832;-71
2021/12/16 13:24:16;;;;;;;1.50;1.40;;;7.90;98.00;;;;;;5073602;28;20579;-71
2021/12/16 13:26:49;;;;;;;1.20;1.20;;;8.00;98.00;;;;;;5073699;28;20464;-71
2021/12/16 13:29:30;;;;;;;1.17;1.00;;;7.90;98.00;;;;;;5073519;28;20548;-70
2021/12/16 13:32:08;;;;;;;1.20;1.20;;;7.80;98.00;;;;;;5073542;28;20567;-70
2021/12/16 13:34:50;;;;;;;1.50;1.20;;;7.80;98.00;;;;;;5072212;28;20454;-72
2021/12/16 13:37:23;;;;;;;1.50;1.20;;;8.00;98.00;;;;;;5072986;28;20484;-70
2021/12/16 13:39:56;;;;;;;1.50;1.10;;;8.10;98.00;;;;;;5072647;28;20459;-72
2021/12/16 13:42:24;;;;;;;1.20;1.10;;;8.10;98.00;;;;;;5073775;28;20951;-70
2021/12/16 13:44:59;;;;;;;1.30;1.30;;;8.10;98.00;;;;;;5073964;28;20546;-70
2021/12/16 14:03:06;;;;;;;1.47;1.33;;;7.80;98.00;;;;;;5073074;28;20459;-69
2021/12/16 14:05:53;;;;;;;1.73;1.10;;;7.70;98.00;;;;;;5072923;28;20463;-69
2021/12/16 14:08:37;;;;;;;1.20;0.97;;;7.70;98.00;;;;;;5072486;28;20500;-70
2021/12/16 14:11:36;;;;;;;1.17;1.00;;;7.60;98.00;;;;;;5073521;28;20464;-69
2021/12/16 14:17:08;;;;;;;1.30;1.10;;;7.80;98.00;;;;;;5072695;28;20445;-70
2021/12/16 14:25:27;;;;;;;1.57;1.53;;;8.00;98.00;;;;;;5072491;28;20448;-70
2021/12/16 14:37:04;;;;;;;1.70;1.50;;;7.60;98.00;;;;;;5065287;28;20601;-70
2021/12/16 14:42:37;;;;;;;1.30;1.10;;;7.30;98.00;;;;;;5056221;28;20472;-70
2021/12/16 14:45:26;;;;;;;4.70;1.57;;;7.20;98.00;;;;;;5069285;28;20701;-68
2021/12/16 14:48:21;;;;;;;1.30;1.20;;;7.20;98.00;;;;;;5070105;28;20457;-71
2021/12/16 14:50:51;;;;;;;1.30;1.20;;;7.10;98.00;;;;;;5067488;28;20466;-72
2021/12/16 14:53:26;;;;;;;2.03;1.30;;;7.10;98.00;;;;;;5068195;28;20489;-70
2021/12/16 14:55:57;;;;;;;1.20;1.00;;;7.10;98.00;;;;;;5058257;28;20468;-70
2021/12/16 14:58:25;;;;;;;1.30;1.20;;;7.10;98.00;;;;;;5068060;28;20597;-70
2021/12/16 15:00:59;;;;;;;1.87;1.33;;;7.10;98.00;;;;;;5068326;28;20463;-70
2021/12/16 15:03:33;;;;;;;1.40;1.30;;;7.10;98.00;;;;;;5068476;28;20460;-71
2021/12/16 15:06:03;;;;;;;1.20;1.10;;;7.10;98.00;;;;;;5068931;28;21442;-71
2021/12/16 15:08:38;;;;;;;1.90;1.40;;;7.00;98.00;;;;;;5069171;28;20487;-70
2021/12/16 15:11:08;;;;;;;2.03;1.30;;;6.90;98.00;;;;;;5069305;28;20462;-70
2021/12/16 15:13:36;;;;;;;1.50;1.40;;;6.80;98.00;;;;;;5067656;28;20550;-70
2021/12/16 15:16:23;;;;;;;1.30;1.10;;;6.80;98.00;;;;;;5069214;28;20843;-71
2021/12/16 15:36:07;;;;;;;3.70;1.37;;;6.40;98.00;;;;;;5067994;28;20469;-70
2021/12/16 15:38:46;;;;;;;1.93;1.30;;;6.30;98.00;;;;;;5068611;28;20501;-70
2021/12/16 15:44:11;;;;;;;1.73;1.53;;;6.20;98.00;;;;;;5068870;28;20960;-70
2021/12/16 15:46:43;;;;;;;1.63;1.57;;;6.20;98.00;;;;;;5068768;28;20495;-70
2021/12/16 15:49:10;;;;;;;1.63;1.27;;;6.00;98.00;;;;;;5067665;28;20474;-70
2021/12/16 15:51:38;;;;;;;2.70;1.60;;;6.00;98.00;;;;;;5067765;28;20501;-70
2021/12/16 15:54:08;;;;;;;1.70;1.60;;;5.90;98.00;;;;;;5058543;28;20493;-70
2021/12/16 15:56:37;;;;;;;1.80;1.70;;;5.90;98.00;;;;;;5068689;28;21327;-69
2021/12/16 15:59:07;;;;;;;1.40;1.10;;;6.00;98.00;;;;;;5068226;28;20527;-70
2021/12/16 16:01:39;;;;;;;1.20;1.20;;;6.00;98.00;;;;;;5066889;28;20506;-70
2021/12/16 16:04:11;;;;;;;1.40;1.10;;;6.10;98.00;;;;;;5068465;28;20526;-70
2021/12/16 16:06:43;;;;;;;1.20;1.10;;;6.10;98.00;;;;;;5068581;28;20547;-70
2021/12/16 16:09:11;;;;;;;1.30;1.30;;;6.00;98.00;;;;;;5068383;28;20549;-70